sensor_id;sensor_type;location;lat;lon;timestamp;pressure;altitude;pressure_sealevel;temperature;humidity
51289;BME280;37372;52.294;5.152;2023-01-29T00:01:50;103040.31;;;2.83;100.00
51289;BME280;37372;52.294;5.152;2023-01-29T00:04:16;103035.28;;;2.85;100.00
51289;BME280;37372;52.294;5.152;2023-01-29T00:06:41;103032.72;;;2.89;100.00
51289;BME280;37372;52.294;5.152;2023-01-29T00:09:08;103031.38;;;2.86;100.00
51289;BME280;37372;52.294;5.152;2023-01-29T00:11:34;103028.91;;;2.85;100.00
51289;BME280;37372;52.294;5.152;2023-01-29T00:13:59;103025.44;;;2.93;100.00
51289;BME280;37372;52.294;5.152;2023-01-29T00:16:25;103036.19;;;2.94;100.00
51289;BME280;37372;52.294;5.152;2023-01-29T00:18:50;103044.72;;;2.84;100.00
51289;BME280;37372;52.294;5.152;2023-01-29T00:21:18;103036.28;;;2.89;100.00
51289;BME280;37372;52.294;5.152;2023-01-29T00:23:44;103042.88;;;2.93;100.00
51289;BME280;37372;52.294;5.152;2023-01-29T00:26:10;103042.06;;;2.93;100.00
51289;BME280;37372;52.294;5.152;2023-01-29T00:28:36;103039.06;;;2.89;100.00
51289;BME280;37372;52.294;5.152;2023-01-29T00:31:09;103035.19;;;2.90;100.00
51289;BME280;37372;52.294;5.152;2023-01-29T00:33:35;103037.09;;;2.90;100.00
51289;BME280;37372;52.294;5.152;2023-01-29T00:36:05;103012.50;;;2.88;100.00
51289;BME280;37372;52.294;5.152;2023-01-29T00:38:32;103016.25;;;2.92;100.00
51289;BME280;37372;52.294;5.152;2023-01-29T00:41:11;103015.16;;;2.93;100.00
51289;BME280;37372;52.294;5.152;2023-01-29T00:43:55;103010.00;;;3.00;100.00
51289;BME280;37372;52.294;5.152;2023-01-29T00:46:39;103012.06;;;2.95;100.00
51289;BME280;37372;52.294;5.152;2023-01-29T00:49:04;103006.72;;;2.98;100.00
51289;BME280;37372;52.294;5.152;2023-01-29T00:51:30;103006.84;;;2.93;100.00
51289;BME280;37372;52.294;5.152;2023-01-29T00:53:55;102994.59;;;2.94;100.00
51289;BME280;37372;52.294;5.152;2023-01-29T00:56:26;103001.19;;;2.98;100.00
51289;BME280;37372;52.294;5.152;2023-01-29T00:58:52;102996.84;;;2.92;100.00
51289;BME280;37372;52.294;5.152;2023-01-29T01:01:18;102996.75;;;2.97;100.00
51289;BME280;37372;52.294;5.152;2023-01-29T01:04:04;102997.69;;;2.93;100.00
51289;BME280;37372;52.294;5.152;2023-01-29T01:06:30;103003.94;;;2.98;100.00
51289;BME280;37372;52.294;5.152;2023-01-29T01:08:55;103008.16;;;2.96;100.00
51289;BME280;37372;52.294;5.152;2023-01-29T01:11:39;103007.53;;;2.99;100.00
51289;BME280;37372;52.294;5.152;2023-01-29T01:14:05;103009.78;;;2.97;100.00
51289;BME280;37372;52.294;5.152;2023-01-29T01:16:30;103008.16;;;2.96;100.00
51289;BME280;37372;52.294;5.152;2023-01-29T01:18:56;103009.16;;;3.00;100.00
51289;BME280;37372;52.294;5.152;2023-01-29T01:21:21;103017.81;;;2.98;100.00
51289;BME280;37372;52.294;5.152;2023-01-29T01:23:46;103018.63;;;2.99;100.00
51289;BME280;37372;52.294;5.152;2023-01-29T01:26:12;103015.16;;;2.93;100.00
51289;BME280;37372;52.294;5.152;2023-01-29T01:28:37;103016.16;;;2.97;100.00
51289;BME280;37372;52.294;5.152;2023-01-29T01:31:08;103012.56;;;3.11;100.00
51289;BME280;37372;52.294;5.152;2023-01-29T01:33:33;103009.47;;;3.12;100.00
51289;BME280;37372;52.294;5.152;2023-01-29T01:36:02;103020.47;;;3.03;100.00
51289;BME280;37372;52.294;5.152;2023-01-29T01:38:28;103008.97;;;2.96;100.00
51289;BME280;37372;52.294;5.152;2023-01-29T01:40:53;103015.16;;;2.93;100.00
51289;BME280;37372;52.294;5.152;2023-01-29T01:43:19;103004.25;;;3.11;100.00
51289;BME280;37372;52.294;5.152;2023-01-29T01:45:44;103012.25;;;2.98;100.00
51289;BME280;37372;52.294;5.152;2023-01-29T01:48:16;103013.28;;;3.02;100.00
51289;BME280;37372;52.294;5.152;2023-01-29T01:50:57;103006.41;;;3.00;100.00
51289;BME280;37372;52.294;5.152;2023-01-29T01:53:34;103013.28;;;3.02;100.00
51289;BME280;37372;52.294;5.152;2023-01-29T01:56:07;103012.91;;;2.95;100.00
51289;BME280;37372;52.294;5.152;2023-01-29T01:58:40;103006.72;;;2.98;100.00
51289;BME280;37372;52.294;5.152;2023-01-29T02:01:07;103010.94;;;2.96;100.00
51289;BME280;37372;52.294;5.152;2023-01-29T02:03:38;103010.59;;;2.97;100.00
51289;BME280;37372;52.294;5.152;2023-01-29T02:06:24;103015.56;;;3.00;100.00
51289;BME280;37372;52.294;5.152;2023-01-29T02:09:19;103015.56;;;3.00;100.00
51289;BME280;37372;52.294;5.152;2023-01-29T02:11:55;103018.63;;;2.99;100.00
51289;BME280;37372;52.294;5.152;2023-01-29T02:14:21;103012.91;;;2.95;100.00
51289;BME280;37372;52.294;5.152;2023-01-29T02:16:46;103001.28;;;2.93;100.00
51289;BME280;37372;52.294;5.152;2023-01-29T02:25:00;103023.88;;;3.00;100.00
51289;BME280;37372;52.294;5.152;2023-01-29T02:35:58;103036.50;;;2.93;100.00
51289;BME280;37372;52.294;5.152;2023-01-29T02:41:24;103025.63;;;2.96;100.00
51289;BME280;37372;52.294;5.152;2023-01-29T02:43:58;103025.19;;;2.89;100.00
51289;BME280;37372;52.294;5.152;2023-01-29T02:46:53;103027.34;;;2.92;100.00
51289;BME280;37372;52.294;5.152;2023-01-29T02:49:34;103020.69;;;2.93;100.00
51289;BME280;37372;52.294;5.152;2023-01-29T02:52:14;103017.41;;;2.91;100.00
51289;BME280;37372;52.294;5.152;2023-01-29T02:57:31;103015.84;;;2.99;100.00
51289;BME280;37372;52.294;5.152;2023-01-29T03:00:07;103006.84;;;2.93;100.00
51289;BME280;37372;52.294;5.152;2023-01-29T03:02:40;103008.28;;;2.91;100.00
51289;BME280;37372;52.294;5.152;2023-01-29T03:05:11;102995.22;;;2.91;100.00
51289;BME280;37372;52.294;5.152;2023-01-29T03:07:44;102993.78;;;2.94;100.00
51289;BME280;37372;52.294;5.152;2023-01-29T03:10:20;102995.03;;;2.88;100.00
51289;BME280;37372;52.294;5.152;2023-01-29T03:12:52;102998.50;;;2.93;100.00
51289;BME280;37372;52.294;5.152;2023-01-29T03:15:43;102993.28;;;2.92;100.00
51289;BME280;37372;52.294;5.152;2023-01-29T03:18:14;102987.94;;;2.95;100.00
51289;BME280;37372;52.294;5.152;2023-01-29T03:20:50;102983.50;;;2.94;100.00
51289;BME280;37372;52.294;5.152;2023-01-29T03:23:28;102987.44;;;2.93;100.00
51289;BME280;37372;52.294;5.152;2023-01-29T03:26:14;102986.91;;;2.91;100.00
51289;BME280;37372;52.294;5.152;2023-01-29T03:28:59;102981.44;;;3.00;100.00
51289;BME280;37372;52.294;5.152;2023-01-29T03:31:44;102968.31;;;2.92;100.00
51289;BME280;37372;52.294;5.152;2023-01-29T03:34:30;102967.09;;;2.98;100.00
51289;BME280;37372;52.294;5.152;2023-01-29T03:37:07;102958.66;;;2.89;100.00
51289;BME280;37372;52.294;5.152;2023-01-29T03:39:38;102960.56;;;2.80;100.00
51289;BME280;37372;52.294;5.152;2023-01-29T03:45:38;102949.84;;;2.87;100.00
51289;BME280;37372;52.294;5.152;2023-01-29T03:51:26;102961.97;;;2.91;100.00
51289;BME280;37372;52.294;5.152;2023-01-29T03:54:06;102944.41;;;2.82;100.00
51289;BME280;37372;52.294;5.152;2023-01-29T03:56:59;102951.91;;;2.81;100.00
51289;BME280;37372;52.294;5.152;2023-01-29T04:02:12;102952.13;;;2.85;100.00
51289;BME280;37372;52.294;5.152;2023-01-29T04:04:42;102943.28;;;2.83;100.00
51289;BME280;37372;52.294;5.152;2023-01-29T04:07:15;102943.94;;;2.80;100.00
51289;BME280;37372;52.294;5.152;2023-01-29T04:09:48;102943.06;;;2.79;100.00
51289;BME280;37372;52.294;5.152;2023-01-29T04:12:18;102941.22;;;2.89;100.00
51289;BME280;37372;52.294;5.152;2023-01-29T04:14:45;102938.16;;;2.90;100.00
51289;BME280;37372;52.294;5.152;2023-01-29T04:17:15;102943.81;;;2.85;100.00
51289;BME280;37372;52.294;5.152;2023-01-29T04:19:43;102944.28;;;2.87;100.00
51289;BME280;37372;52.294;5.152;2023-01-29T04:24:41;102928.28;;;2.84;100.00
51289;BME280;37372;52.294;5.152;2023-01-29T04:27:17;102932.22;;;2.83;100.00
51289;BME280;37372;52.294;5.152;2023-01-29T04:32:31;102919.78;;;2.80;100.00
51289;BME280;37372;52.294;5.152;2023-01-29T04:37:59;102918.00;;;2.98;100.00
51289;BME280;37372;52.294;5.152;2023-01-29T04:40:46;102913.31;;;2.85;100.00
51289;BME280;37372;52.294;5.152;2023-01-29T04:43:31;102914.13;;;2.86;100.00
51289;BME280;37372;52.294;5.152;2023-01-29T04:46:09;102907.16;;;2.88;100.00
51289;BME280;37372;52.294;5.152;2023-01-29T04:48:45;102907.44;;;2.87;100.00
51289;BME280;37372;52.294;5.152;2023-01-29T04:51:28;102904.88;;;2.90;100.00
51289;BME280;37372;52.294;5.152;2023-01-29T04:54:06;102887.00;;;2.96;100.00
51289;BME280;37372;52.294;5.152;2023-01-29T04:56:38;102882.81;;;2.85;100.00
51289;BME280;37372;52.294;5.152;2023-01-29T04:59:12;102887.75;;;2.88;100.00
51289;BME280;37372;52.294;5.152;2023-01-29T05:01:39;102886.41;;;2.86;100.00
51289;BME280;37372;52.294;5.152;2023-01-29T05:04:09;102890.81;;;2.87;100.00
51289;BME280;37372;52.294;5.152;2023-01-29T05:06:36;102883.41;;;2.96;100.00
51289;BME280;37372;52.294;5.152;2023-01-29T05:09:03;102890.50;;;2.88;100.00
51289;BME280;37372;52.294;5.152;2023-01-29T05:11:30;102883.31;;;2.87;100.00
51289;BME280;37372;52.294;5.152;2023-01-29T05:13:58;102897.44;;;2.99;100.00
51289;BME280;37372;52.294;5.152;2023-01-29T05:16:42;102896.81;;;3.02;100.00
51289;BME280;37372;52.294;5.152;2023-01-29T05:19:10;102907.53;;;2.95;100.00
51289;BME280;37372;52.294;5.152;2023-01-29T05:21:37;102898.72;;;2.93;100.00
51289;BME280;37372;52.294;5.152;2023-01-29T05:24:14;102896.25;;;2.92;100.00
51289;BME280;37372;52.294;5.152;2023-01-29T05:26:41;102895.81;;;2.98;100.00
51289;BME280;37372;52.294;5.152;2023-01-29T05:29:25;102890.38;;;2.93;100.00
51289;BME280;37372;52.294;5.152;2023-01-29T05:31:51;102887.28;;;2.95;100.00
51289;BME280;37372;52.294;5.152;2023-01-29T05:34:16;102891.84;;;2.91;100.00
51289;BME280;37372;52.294;5.152;2023-01-29T05:36:42;102893.16;;;2.93;100.00
51289;BME280;37372;52.294;5.152;2023-01-29T05:39:07;102893.69;;;2.95;100.00
51289;BME280;37372;52.294;5.152;2023-01-29T05:41:32;102892.78;;;2.86;100.00
51289;BME280;37372;52.294;5.152;2023-01-29T05:43:57;102890.50;;;2.88;100.00
51289;BME280;37372;52.294;5.152;2023-01-29T05:46:23;102894.78;;;2.94;100.00
51289;BME280;37372;52.294;5.152;2023-01-29T05:48:51;102888.84;;;2.87;100.00
51289;BME280;37372;52.294;5.152;2023-01-29T05:51:16;102885.78;;;2.89;100.00
51289;BME280;37372;52.294;5.152;2023-01-29T05:53:42;102880.41;;;2.92;100.00
51289;BME280;37372;52.294;5.152;2023-01-29T05:56:07;102873.47;;;2.81;100.00
51289;BME280;37372;52.294;5.152;2023-01-29T05:58:33;102874.50;;;2.85;100.00
51289;BME280;37372;52.294;5.152;2023-01-29T06:01:09;102865.44;;;2.93;100.00
51289;BME280;37372;52.294;5.152;2023-01-29T06:03:35;102851.00;;;2.82;100.00
51289;BME280;37372;52.294;5.152;2023-01-29T06:06:01;102853.09;;;2.99;100.00
51289;BME280;37372;52.294;5.152;2023-01-29T06:08:26;102850.03;;;2.87;100.00
51289;BME280;37372;52.294;5.152;2023-01-29T06:10:51;102843.50;;;2.83;100.00
51289;BME280;37372;52.294;5.152;2023-01-29T06:13:17;102846.28;;;2.83;100.00
51289;BME280;37372;52.294;5.152;2023-01-29T06:15:42;102850.03;;;2.87;100.00
51289;BME280;37372;52.294;5.152;2023-01-29T06:18:07;102849.44;;;2.90;100.00
51289;BME280;37372;52.294;5.152;2023-01-29T06:20:33;102832.19;;;2.93;100.00
51289;BME280;37372;52.294;5.152;2023-01-29T06:22:58;102839.34;;;2.94;100.00
51289;BME280;37372;52.294;5.152;2023-01-29T06:25:23;102830.50;;;2.92;100.00
51289;BME280;37372;52.294;5.152;2023-01-29T06:27:49;102839.06;;;2.82;100.00
51289;BME280;37372;52.294;5.152;2023-01-29T06:30:15;102837.22;;;2.91;100.00
51289;BME280;37372;52.294;5.152;2023-01-29T06:32:41;102834.03;;;2.84;100.00
51289;BME280;37372;52.294;5.152;2023-01-29T06:35:06;102834.44;;;2.91;100.00
51289;BME280;37372;52.294;5.152;2023-01-29T06:37:34;102834.94;;;2.93;100.00
51289;BME280;37372;52.294;5.152;2023-01-29T06:39:59;102841.84;;;2.82;100.00
51289;BME280;37372;52.294;5.152;2023-01-29T06:42:24;102839.97;;;2.91;100.00
51289;BME280;37372;52.294;5.152;2023-01-29T06:44:55;102838.97;;;2.87;100.00
51289;BME280;37372;52.294;5.152;2023-01-29T06:47:21;102845.00;;;2.89;100.00
51289;BME280;37372;52.294;5.152;2023-01-29T06:49:47;102848.19;;;2.96;100.00
51289;BME280;37372;52.294;5.152;2023-01-29T06:52:12;102834.03;;;2.84;100.00
51289;BME280;37372;52.294;5.152;2023-01-29T06:54:37;102819.88;;;2.86;100.00
51289;BME280;37372;52.294;5.152;2023-01-29T06:57:03;102818.69;;;2.78;100.00
51289;BME280;37372;52.294;5.152;2023-01-29T06:59:28;102816.53;;;2.97;100.00
51289;BME280;37372;52.294;5.152;2023-01-29T07:01:54;102816.31;;;2.85;100.00
51289;BME280;37372;52.294;5.152;2023-01-29T07:04:19;102817.75;;;2.82;100.00
51289;BME280;37372;52.294;5.152;2023-01-29T07:06:44;102823.59;;;2.81;100.00
51289;BME280;37372;52.294;5.152;2023-01-29T07:09:13;102831.16;;;2.89;100.00
51289;BME280;37372;52.294;5.152;2023-01-29T07:11:39;102831.09;;;2.80;100.00
51289;BME280;37372;52.294;5.152;2023-01-29T07:14:04;102831.16;;;2.89;100.00
51289;BME280;37372;52.294;5.152;2023-01-29T07:16:30;102836.31;;;2.82;100.00
51289;BME280;37372;52.294;5.152;2023-01-29T07:18:56;102837.84;;;2.88;100.00
51289;BME280;37372;52.294;5.152;2023-01-29T07:21:21;102832.94;;;2.85;100.00
51289;BME280;37372;52.294;5.152;2023-01-29T07:23:47;102835.25;;;2.92;100.00
51289;BME280;37372;52.294;5.152;2023-01-29T07:26:12;102837.34;;;2.86;100.00
51289;BME280;37372;52.294;5.152;2023-01-29T07:28:38;102834.03;;;2.84;100.00
51289;BME280;37372;52.294;5.152;2023-01-29T07:31:04;102840.03;;;2.77;100.00
51289;BME280;37372;52.294;5.152;2023-01-29T07:33:30;102830.34;;;2.89;100.00
51289;BME280;37372;52.294;5.152;2023-01-29T07:35:55;102833.63;;;2.91;100.00
51289;BME280;37372;52.294;5.152;2023-01-29T07:38:21;102823.78;;;2.85;100.00
51289;BME280;37372;52.294;5.152;2023-01-29T07:40:46;102828.88;;;2.91;100.00
51289;BME280;37372;52.294;5.152;2023-01-29T07:43:13;102817.97;;;2.95;100.00
51289;BME280;37372;52.294;5.152;2023-01-29T07:45:39;102807.72;;;2.95;100.00
51289;BME280;37372;52.294;5.152;2023-01-29T07:48:05;102798.91;;;2.93;100.00
51289;BME280;37372;52.294;5.152;2023-01-29T07:50:32;102799.53;;;2.90;100.00
51289;BME280;37372;52.294;5.152;2023-01-29T07:52:58;102797.88;;;2.89;100.00
51289;BME280;37372;52.294;5.152;2023-01-29T07:55:24;102798.91;;;2.93;100.00
51289;BME280;37372;52.294;5.152;2023-01-29T07:58:01;102791.09;;;2.95;100.00
51289;BME280;37372;52.294;5.152;2023-01-29T08:00:27;102783.09;;;2.94;100.00
51289;BME280;37372;52.294;5.152;2023-01-29T08:02:53;102783.91;;;2.94;100.00
51289;BME280;37372;52.294;5.152;2023-01-29T08:05:18;102790.25;;;2.95;100.00
51289;BME280;37372;52.294;5.152;2023-01-29T08:07:44;102785.28;;;3.06;100.00
51289;BME280;37372;52.294;5.152;2023-01-29T08:10:10;102786.53;;;2.99;100.00
51289;BME280;37372;52.294;5.152;2023-01-29T08:12:35;102789.00;;;3.01;100.00
51289;BME280;37372;52.294;5.152;2023-01-29T08:15:01;102794.72;;;3.04;100.00
51289;BME280;37372;52.294;5.152;2023-01-29T08:17:26;102791.28;;;2.99;100.00
51289;BME280;37372;52.294;5.152;2023-01-29T08:19:51;102793.09;;;3.03;100.00
51289;BME280;37372;52.294;5.152;2023-01-29T08:22:17;102795.50;;;2.96;100.00
51289;BME280;37372;52.294;5.152;2023-01-29T08:24:42;102794.72;;;3.04;100.00
51289;BME280;37372;52.294;5.152;2023-01-29T08:27:08;102782.66;;;3.00;100.00
51289;BME280;37372;52.294;5.152;2023-01-29T08:29:33;102778.72;;;3.01;100.00
51289;BME280;37372;52.294;5.152;2023-01-29T08:31:59;102782.66;;;3.00;100.00
51289;BME280;37372;52.294;5.152;2023-01-29T08:34:25;102773.69;;;3.03;100.00
51289;BME280;37372;52.294;5.152;2023-01-29T08:36:51;102767.63;;;3.01;100.00
51289;BME280;37372;52.294;5.152;2023-01-29T08:39:17;102771.91;;;3.08;100.00
51289;BME280;37372;52.294;5.152;2023-01-29T08:41:43;102770.09;;;3.03;100.00
51289;BME280;37372;52.294;5.152;2023-01-29T08:44:08;102775.19;;;3.10;100.00
51289;BME280;37372;52.294;5.152;2023-01-29T08:46:33;102764.63;;;3.20;100.00
51289;BME280;37372;52.294;5.152;2023-01-29T08:48:59;102771.63;;;3.18;100.00
51289;BME280;37372;52.294;5.152;2023-01-29T08:51:24;102766.47;;;3.25;100.00
51289;BME280;37372;52.294;5.152;2023-01-29T08:53:50;102758.16;;;3.25;100.00
51289;BME280;37372;52.294;5.152;2023-01-29T08:56:16;102761.28;;;3.32;100.00
51289;BME280;37372;52.294;5.152;2023-01-29T08:58:42;102760.91;;;3.25;100.00
51289;BME280;37372;52.294;5.152;2023-01-29T09:01:09;102759.00;;;3.34;100.00
51289;BME280;37372;52.294;5.152;2023-01-29T09:03:35;102752.53;;;3.47;100.00
51289;BME280;37372;52.294;5.152;2023-01-29T09:06:01;102747.91;;;3.34;100.00
51289;BME280;37372;52.294;5.152;2023-01-29T09:08:27;102747.66;;;3.53;100.00
51289;BME280;37372;52.294;5.152;2023-01-29T09:10:52;102747.44;;;3.41;100.00
51289;BME280;37372;52.294;5.152;2023-01-29T09:13:18;102742.00;;;3.27;100.00
51289;BME280;37372;52.294;5.152;2023-01-29T09:15:43;102741.38;;;3.30;100.00
51289;BME280;37372;52.294;5.152;2023-01-29T09:18:08;102752.19;;;3.40;100.00
51289;BME280;37372;52.294;5.152;2023-01-29T09:20:34;102753.19;;;3.44;100.00
51289;BME280;37372;52.294;5.152;2023-01-29T09:23:06;102755.91;;;3.36;100.00
51289;BME280;37372;52.294;5.152;2023-01-29T09:25:32;102759.19;;;3.38;100.00
51289;BME280;37372;52.294;5.152;2023-01-29T09:27:58;102760.47;;;3.32;100.00
51289;BME280;37372;52.294;5.152;2023-01-29T09:30:24;102744.34;;;3.34;100.00
51289;BME280;37372;52.294;5.152;2023-01-29T09:32:49;102757.59;;;3.45;100.00
51289;BME280;37372;52.294;5.152;2023-01-29T09:35:14;102760.88;;;3.47;100.00
51289;BME280;37372;52.294;5.152;2023-01-29T09:37:40;102768.09;;;3.57;100.00
51289;BME280;37372;52.294;5.152;2023-01-29T09:40:06;102758.81;;;3.62;100.00
51289;BME280;37372;52.294;5.152;2023-01-29T09:42:54;102755.88;;;3.67;100.00
51289;BME280;37372;52.294;5.152;2023-01-29T09:45:23;102753.63;;;3.69;100.00
51289;BME280;37372;52.294;5.152;2023-01-29T09:47:49;102751.59;;;3.61;100.00
51289;BME280;37372;52.294;5.152;2023-01-29T09:50:19;102755.97;;;3.53;100.00
51289;BME280;37372;52.294;5.152;2023-01-29T09:55:27;102755.53;;;3.60;100.00
51289;BME280;37372;52.294;5.152;2023-01-29T09:57:57;102755.03;;;3.58;100.00
51289;BME280;37372;52.294;5.152;2023-01-29T10:00:28;102745.38;;;3.46;100.00
51289;BME280;37372;52.294;5.152;2023-01-29T10:11:03;102729.41;;;3.61;100.00
51289;BME280;37372;52.294;5.152;2023-01-29T10:13:50;102721.56;;;3.54;100.00
51289;BME280;37372;52.294;5.152;2023-01-29T10:16:39;102727.28;;;3.58;100.00
51289;BME280;37372;52.294;5.152;2023-01-29T10:19:42;102725.00;;;3.60;100.00
51289;BME280;37372;52.294;5.152;2023-01-29T10:22:46;102716.69;;;3.60;100.00
51289;BME280;37372;52.294;5.152;2023-01-29T10:25:09;102712.50;;;3.80;100.00
51289;BME280;37372;52.294;5.152;2023-01-29T10:27:37;102709.22;;;3.69;100.00
51289;BME280;37372;52.294;5.152;2023-01-29T10:30:07;102719.34;;;3.82;100.00
51289;BME280;37372;52.294;5.152;2023-01-29T10:32:35;102716.88;;;3.81;100.00
51289;BME280;37372;52.294;5.152;2023-01-29T10:35:14;102717.69;;;3.81;100.00
51289;BME280;37372;52.294;5.152;2023-01-29T10:37:43;102701.69;;;3.78;100.00
51289;BME280;37372;52.294;5.152;2023-01-29T10:42:51;102693.53;;;3.73;100.00
51289;BME280;37372;52.294;5.152;2023-01-29T10:48:24;102691.09;;;3.80;100.00
51289;BME280;37372;52.294;5.152;2023-01-29T10:51:04;102687.31;;;3.76;100.00
51289;BME280;37372;52.294;5.152;2023-01-29T10:58:54;102676.72;;;3.78;100.00
51289;BME280;37372;52.294;5.152;2023-01-29T11:01:21;102673.13;;;3.78;100.00
51289;BME280;37372;52.294;5.152;2023-01-29T11:03:55;102673.28;;;3.81;100.00
51289;BME280;37372;52.294;5.152;2023-01-29T11:06:22;102672.28;;;3.68;100.00
51289;BME280;37372;52.294;5.152;2023-01-29T11:11:32;102668.72;;;3.77;100.00
51289;BME280;37372;52.294;5.152;2023-01-29T11:14:04;102666.25;;;3.75;100.00
51289;BME280;37372;52.294;5.152;2023-01-29T11:16:41;102672.66;;;3.84;100.00
51289;BME280;37372;52.294;5.152;2023-01-29T11:19:07;102660.22;;;3.73;100.00
51289;BME280;37372;52.294;5.152;2023-01-29T11:24:19;102651.91;;;3.82;100.00
51289;BME280;37372;52.294;5.152;2023-01-29T11:26:47;102654.84;;;3.85;100.00
51289;BME280;37372;52.294;5.152;2023-01-29T11:29:31;102651.72;;;3.78;100.00
51289;BME280;37372;52.294;5.152;2023-01-29T11:31:59;102638.66;;;3.70;100.00
51289;BME280;37372;52.294;5.152;2023-01-29T11:34:25;102648.94;;;3.78;100.00
51289;BME280;37372;52.294;5.152;2023-01-29T11:36:59;102635.56;;;3.72;100.00
51289;BME280;37372;52.294;5.152;2023-01-29T11:39:26;102626.56;;;3.66;100.00
51289;BME280;37372;52.294;5.152;2023-01-29T11:42:00;102623.63;;;3.71;100.00
51289;BME280;37372;52.294;5.152;2023-01-29T11:44:34;102623.97;;;3.78;100.00
51289;BME280;37372;52.294;5.152;2023-01-29T11:49:36;102611.91;;;3.74;100.00
51289;BME280;37372;52.294;5.152;2023-01-29T11:52:05;102615.47;;;3.83;100.00
51289;BME280;37372;52.294;5.152;2023-01-29T11:54:39;102605.53;;;3.82;100.00
51289;BME280;37372;52.294;5.152;2023-01-29T11:59:49;102598.31;;;3.81;100.00
51289;BME280;37372;52.294;5.152;2023-01-29T12:02:30;102594.09;;;3.84;100.00
51289;BME280;37372;52.294;5.152;2023-01-29T12:05:02;102594.91;;;3.67;100.00
51289;BME280;37372;52.294;5.152;2023-01-29T12:07:29;102582.50;;;3.73;100.00
51289;BME280;37372;52.294;5.152;2023-01-29T12:09:57;102586.75;;;3.79;100.00
51289;BME280;37372;52.294;5.152;2023-01-29T12:12:33;102585.75;;;3.75;100.00
51289;BME280;37372;52.294;5.152;2023-01-29T12:15:15;102578.91;;;3.81;100.00
51289;BME280;37372;52.294;5.152;2023-01-29T12:17:46;102566.16;;;3.80;100.00
51289;BME280;37372;52.294;5.152;2023-01-29T12:20:21;102575.31;;;3.89;100.00
51289;BME280;37372;52.294;5.152;2023-01-29T12:22:57;102570.09;;;3.79;100.00
51289;BME280;37372;52.294;5.152;2023-01-29T12:25:43;102560.78;;;3.84;100.00
51289;BME280;37372;52.294;5.152;2023-01-29T12:36:42;102534.47;;;3.81;100.00
51289;BME280;37372;52.294;5.152;2023-01-29T12:39:17;102523.06;;;3.83;100.00
51289;BME280;37372;52.294;5.152;2023-01-29T12:42:07;102513.91;;;4.00;100.00
51289;BME280;37372;52.294;5.152;2023-01-29T12:44:43;102506.38;;;3.91;100.00
51289;BME280;37372;52.294;5.152;2023-01-29T12:50:02;102495.22;;;4.18;100.00
51289;BME280;37372;52.294;5.152;2023-01-29T12:52:36;102480.69;;;4.21;100.00
51289;BME280;37372;52.294;5.152;2023-01-29T12:55:17;102474.94;;;4.17;100.00
51289;BME280;37372;52.294;5.152;2023-01-29T12:58:01;102459.41;;;4.25;100.00
51289;BME280;37372;52.294;5.152;2023-01-29T13:00:33;102453.03;;;4.24;100.00
51289;BME280;37372;52.294;5.152;2023-01-29T13:03:06;102441.47;;;4.52;100.00
51289;BME280;37372;52.294;5.152;2023-01-29T13:05:38;102440.81;;;4.55;100.00
51289;BME280;37372;52.294;5.152;2023-01-29T13:08:12;102432.06;;;4.65;100.00
51289;BME280;37372;52.294;5.152;2023-01-29T13:10:43;102431.47;;;4.60;100.00
51289;BME280;37372;52.294;5.152;2023-01-29T13:13:33;102421.72;;;4.45;100.00
51289;BME280;37372;52.294;5.152;2023-01-29T13:16:03;102418.38;;;4.60;100.00
51289;BME280;37372;52.294;5.152;2023-01-29T13:21:30;102405.53;;;4.47;100.00
51289;BME280;37372;52.294;5.152;2023-01-29T13:24:11;102394.00;;;4.36;100.00
51289;BME280;37372;52.294;5.152;2023-01-29T13:26:39;102391.16;;;4.45;100.00
51289;BME280;37372;52.294;5.152;2023-01-29T13:29:05;102391.06;;;4.32;100.00
51289;BME280;37372;52.294;5.152;2023-01-29T13:36:56;102384.56;;;4.28;100.00
51289;BME280;37372;52.294;5.152;2023-01-29T13:39:34;102380.50;;;4.26;100.00
51289;BME280;37372;52.294;5.152;2023-01-29T13:42:21;102379.09;;;4.41;100.00
51289;BME280;37372;52.294;5.152;2023-01-29T13:44:55;102374.38;;;4.32;100.00
51289;BME280;37372;52.294;5.152;2023-01-29T13:47:29;102378.03;;;4.24;100.00
51289;BME280;37372;52.294;5.152;2023-01-29T13:57:52;102358.59;;;4.24;100.00
51289;BME280;37372;52.294;5.152;2023-01-29T14:02:49;102363.25;;;4.41;100.00
51289;BME280;37372;52.294;5.152;2023-01-29T14:13:46;102348.56;;;4.32;100.00
51289;BME280;37372;52.294;5.152;2023-01-29T14:18:56;102339.84;;;4.42;100.00
51289;BME280;37372;52.294;5.152;2023-01-29T14:23:53;102333.28;;;4.47;100.00
51289;BME280;37372;52.294;5.152;2023-01-29T14:31:43;102324.34;;;4.41;100.00
51289;BME280;37372;52.294;5.152;2023-01-29T14:37:18;102321.25;;;4.43;100.00
51289;BME280;37372;52.294;5.152;2023-01-29T14:39:46;102316.34;;;4.40;100.00
51289;BME280;37372;52.294;5.152;2023-01-29T14:50:48;102306.75;;;4.58;100.00
51289;BME280;37372;52.294;5.152;2023-01-29T15:00:58;102298.47;;;4.49;100.00
51289;BME280;37372;52.294;5.152;2023-01-29T15:03:38;102306.19;;;4.44;100.00
51289;BME280;37372;52.294;5.152;2023-01-29T15:06:09;102303.69;;;4.51;100.00
51289;BME280;37372;52.294;5.152;2023-01-29T15:08:44;102294.38;;;4.47;100.00
51289;BME280;37372;52.294;5.152;2023-01-29T15:11:17;102301.91;;;4.46;100.00
51289;BME280;37372;52.294;5.152;2023-01-29T15:14:23;102284.97;;;4.39;100.00
51289;BME280;37372;52.294;5.152;2023-01-29T15:16:59;102276.84;;;4.34;100.00
51289;BME280;37372;52.294;5.152;2023-01-29T15:19:33;102284.34;;;4.33;100.00
51289;BME280;37372;52.294;5.152;2023-01-29T15:22:11;102276.50;;;4.35;100.00
51289;BME280;37372;52.294;5.152;2023-01-29T15:24:38;102265.78;;;4.25;100.00
51289;BME280;37372;52.294;5.152;2023-01-29T15:27:05;102269.03;;;4.27;100.00